createdAt,value
2022-09-07T00:01:05.936Z,100445.38
2022-09-07T00:03:34.360Z,100453.44
2022-09-07T00:06:07.828Z,100454.44
2022-09-07T00:08:35.994Z,100444.19
2022-09-07T00:11:06.140Z,100449.72
2022-09-07T00:13:36.448Z,100448.03
2022-09-07T00:16:10.201Z,100447.53
2022-09-07T00:18:40.340Z,100443.19
2022-09-07T00:21:12.761Z,100436.78
2022-09-07T00:23:40.504Z,100445.03
2022-09-07T00:26:11.573Z,100439.66
2022-09-07T00:28:39.641Z,100432.25
2022-09-07T00:31:19.063Z,100435.78
2022-09-07T00:33:49.156Z,100432.44
2022-09-07T00:36:18.547Z,100439.81
2022-09-07T00:38:46.628Z,100423.84
2022-09-07T00:41:15.026Z,100429.06
2022-09-07T00:43:46.935Z,100423.34
2022-09-07T00:46:26.886Z,100427.72
2022-09-07T00:49:08.984Z,100418.66
2022-09-07T00:51:42.268Z,100428.38
2022-09-07T00:54:15.539Z,100430.75
2022-09-07T00:56:45.692Z,100432.41
2022-09-07T00:59:19.662Z,100436.81
2022-09-07T01:01:47.551Z,100437.78
2022-09-07T01:04:16.346Z,100447.56
2022-09-07T01:06:44.456Z,100443.69
2022-09-07T01:09:16.876Z,100439.00
2022-09-07T01:11:50.868Z,100434.78
2022-09-07T01:14:23.090Z,100431.44
2022-09-07T01:16:59.614Z,100434.13
2022-09-07T01:19:27.178Z,100432.75
2022-09-07T01:22:35.503Z,100415.47
2022-09-07T01:25:11.011Z,100419.47
2022-09-07T01:27:47.657Z,100413.75
2022-09-07T01:30:19.537Z,100421.97
2022-09-07T01:32:56.517Z,100428.69
2022-09-07T01:35:39.120Z,100424.47
2022-09-07T01:38:12.630Z,100423.97
2022-09-07T01:40:57.495Z,100413.41
2022-09-07T01:43:44.319Z,100416.41
2022-09-07T01:46:34.809Z,100423.47
2022-09-07T01:49:19.422Z,100421.94
2022-09-07T01:51:55.488Z,100424.44
2022-09-07T01:54:35.390Z,100418.94
2022-09-07T01:57:08.351Z,100424.13
2022-09-07T01:59:44.729Z,100420.59
2022-09-07T02:02:18.211Z,100419.91
2022-09-07T02:04:55.082Z,100423.78
2022-09-07T02:07:28.883Z,100425.94
2022-09-07T02:10:02.780Z,100419.22
2022-09-07T02:12:40.593Z,100427.44
2022-09-07T02:15:20.466Z,100423.94
2022-09-07T02:17:58.633Z,100424.91
2022-09-07T02:20:32.186Z,100422.22
2022-09-07T02:23:04.782Z,100423.94
2022-09-07T02:25:45.369Z,100422.41
2022-09-07T02:28:17.817Z,100418.88
2022-09-07T02:30:45.939Z,100419.84
2022-09-07T02:33:13.869Z,100425.41
2022-09-07T02:35:41.618Z,100414.13
2022-09-07T02:38:09.253Z,100426.84
2022-09-07T02:40:36.837Z,100424.50
2022-09-07T02:43:07.788Z,100420.47
2022-09-07T02:46:12.753Z,100416.41
2022-09-07T02:48:56.382Z,100414.91
2022-09-07T02:51:29.709Z,100425.13
2022-09-07T02:54:12.304Z,100422.75
2022-09-07T02:56:52.275Z,100423.06
2022-09-07T02:59:49.146Z,100418.72
2022-09-07T03:02:43.397Z,100409.66
2022-09-07T03:05:36.820Z,100411.66
2022-09-07T03:08:11.907Z,100410.28
2022-09-07T03:10:41.100Z,100412.28
2022-09-07T03:13:09.131Z,100406.25
2022-09-07T03:15:36.678Z,100409.91
2022-09-07T03:18:04.391Z,100410.59
2022-09-07T03:20:31.917Z,100413.81
2022-09-07T03:22:59.535Z,100409.47
2022-09-07T03:25:27.045Z,100410.53
2022-09-07T03:27:54.652Z,100403.00
2022-09-07T03:30:22.165Z,100408.72
2022-09-07T03:32:49.848Z,100410.91
2022-09-07T03:35:17.875Z,100406.38
2022-09-07T03:37:45.425Z,100405.06
2022-09-07T03:40:14.960Z,100405.06
2022-09-07T03:42:43.167Z,100406.06
2022-09-07T03:45:11.201Z,100408.56
2022-09-07T03:47:39.219Z,100412.63
2022-09-07T03:50:07.737Z,100395.34
2022-09-07T03:52:36.349Z,100397.06
2022-09-07T03:55:05.076Z,100395.03
2022-09-07T03:57:32.633Z,100399.56
2022-09-07T04:00:00.223Z,100400.72
2022-09-07T04:02:27.994Z,100403.41
2022-09-07T04:04:55.552Z,100400.59
2022-09-07T04:07:23.142Z,100393.38
2022-09-07T04:09:51.527Z,100396.38
2022-09-07T04:12:19.119Z,100394.38
2022-09-07T04:14:46.673Z,100395.22
2022-09-07T04:17:14.291Z,100394.56
2022-09-07T04:19:41.879Z,100384.66
2022-09-07T04:22:09.423Z,100392.72
2022-09-07T04:24:37.446Z,100388.88
2022-09-07T04:27:04.975Z,100387.84
2022-09-07T04:29:32.460Z,100387.66
2022-09-07T04:32:00.094Z,100383.81
2022-09-07T04:34:27.640Z,100388.03
2022-09-07T04:36:55.179Z,100384.31
2022-09-07T04:39:23.067Z,100387.53
2022-09-07T04:41:50.598Z,100389.03
2022-09-07T04:44:18.132Z,100387.03
2022-09-07T04:46:45.752Z,100381.50
2022-09-07T04:49:13.813Z,100386.72
2022-09-07T04:51:42.989Z,100379.16
2022-09-07T04:54:11.132Z,100375.97
2022-09-07T04:56:38.625Z,100371.09
2022-09-07T04:59:06.289Z,100375.47
2022-09-07T05:01:33.946Z,100377.16
2022-09-07T05:04:02.582Z,100382.69
2022-09-07T05:06:32.222Z,100370.25
2022-09-07T05:09:00.335Z,100365.22
2022-09-07T05:11:29.875Z,100368.06
2022-09-07T05:13:59.826Z,100365.03
2022-09-07T05:16:28.108Z,100363.50
2022-09-07T05:19:01.696Z,100356.47
2022-09-07T05:21:32.122Z,100357.81
2022-09-07T05:24:00.896Z,100358.97
2022-09-07T05:26:31.541Z,100356.28
2022-09-07T05:31:51.890Z,100352.44
2022-09-07T05:34:35.018Z,100355.97
2022-09-07T05:37:03.350Z,100349.06
2022-09-07T05:39:31.477Z,100347.22
2022-09-07T05:41:59.131Z,100341.00
2022-09-07T05:47:10.127Z,100345.53
2022-09-07T05:49:37.699Z,100347.53
2022-09-07T05:52:09.690Z,100349.41
2022-09-07T05:54:37.747Z,100353.94
2022-09-07T05:57:05.552Z,100364.53
2022-09-07T05:59:33.686Z,100360.16
2022-09-07T06:02:01.527Z,100365.19
2022-09-07T06:04:29.150Z,100369.22
2022-09-07T06:07:20.623Z,100374.94
2022-09-07T06:12:32.158Z,100369.09
2022-09-07T06:15:01.624Z,100372.97
2022-09-07T06:17:29.683Z,100375.97
2022-09-07T06:19:57.806Z,100373.28
2022-09-07T06:22:28.931Z,100376.81
2022-09-07T06:24:59.108Z,100373.28
2022-09-07T06:27:26.813Z,100375.97
2022-09-07T06:29:54.642Z,100374.13
2022-09-07T06:35:11.509Z,100374.47
2022-09-07T06:37:39.352Z,100381.34
2022-09-07T06:40:10.702Z,100380.19
2022-09-07T06:42:38.852Z,100388.06
2022-09-07T06:45:06.954Z,100383.38
2022-09-07T06:47:34.851Z,100389.41
2022-09-07T06:50:02.443Z,100389.41
2022-09-07T06:55:17.864Z,100385.56
2022-09-07T06:57:45.461Z,100386.06
2022-09-07T07:00:13.580Z,100386.38
2022-09-07T07:02:41.151Z,100383.34
2022-09-07T07:05:09.294Z,100391.09
2022-09-07T07:07:36.795Z,100393.28
2022-09-07T07:10:04.768Z,100384.69
2022-09-07T07:15:04.793Z,100390.75
2022-09-07T07:17:32.416Z,100395.47
2022-09-07T07:19:59.995Z,100394.94
2022-09-07T07:22:45.996Z,100396.28
2022-09-07T07:25:15.090Z,100390.41
2022-09-07T07:27:43.011Z,100382.47
2022-09-07T07:30:11.196Z,100391.19
2022-09-07T07:32:39.398Z,100378.50
2022-09-07T07:35:12.004Z,100387.06
2022-09-07T07:37:39.825Z,100382.78
2022-09-07T07:42:41.843Z,100377.66
2022-09-07T07:47:58.620Z,100380.22
2022-09-07T07:50:34.134Z,100378.81
2022-09-07T07:55:49.816Z,100382.47
2022-09-07T07:58:17.660Z,100389.50
2022-09-07T08:01:00.699Z,100390.97
2022-09-07T08:03:29.257Z,100396.47
2022-09-07T08:05:57.020Z,100390.50
2022-09-07T08:08:24.687Z,100392.84
2022-09-07T08:10:53.069Z,100390.16
2022-09-07T08:13:21.631Z,100389.31
2022-09-07T08:15:49.306Z,100394.72
2022-09-07T08:18:17.794Z,100391.97
2022-09-07T08:20:45.316Z,100394.59
2022-09-07T08:23:12.876Z,100398.91
2022-09-07T08:25:50.675Z,100396.78
2022-09-07T08:28:19.001Z,100389.94
2022-09-07T08:30:46.506Z,100394.16
2022-09-07T08:33:14.297Z,100396.06
2022-09-07T08:35:41.840Z,100392.44
2022-09-07T08:38:09.620Z,100393.75
2022-09-07T08:40:38.702Z,100393.56
2022-09-07T08:43:28.801Z,100394.47
2022-09-07T08:46:04.830Z,100398.56
2022-09-07T08:48:35.239Z,100396.06
2022-09-07T08:51:24.585Z,100396.63
2022-09-07T08:53:52.610Z,100395.78
2022-09-07T08:56:39.302Z,100396.44
2022-09-07T08:59:16.641Z,100400.44
2022-09-07T09:02:27.000Z,100402.31
2022-09-07T09:04:32.673Z,100405.47
2022-09-07T09:07:10.061Z,100403.25
2022-09-07T09:09:40.449Z,100405.00
2022-09-07T09:12:32.353Z,100410.53
2022-09-07T09:15:23.542Z,100403.44
2022-09-07T09:18:14.945Z,100409.94
2022-09-07T09:21:00.124Z,100408.22
2022-09-07T09:23:34.475Z,100408.09
2022-09-07T09:26:10.535Z,100417.44
2022-09-07T09:28:39.809Z,100413.75
2022-09-07T09:31:17.204Z,100411.13
2022-09-07T09:34:05.032Z,100410.22
2022-09-07T09:36:44.491Z,100414.03
2022-09-07T09:39:35.231Z,100410.28
2022-09-07T09:42:11.949Z,100404.84
2022-09-07T09:44:40.225Z,100409.69
2022-09-07T09:47:30.237Z,100405.34
2022-09-07T09:50:01.569Z,100405.41
2022-09-07T09:52:41.772Z,100408.72
2022-09-07T09:55:34.275Z,100403.66
2022-09-07T10:01:25.256Z,100401.28
2022-09-07T10:06:26.584Z,100413.88
2022-09-07T10:08:59.830Z,100412.22
2022-09-07T10:12:07.652Z,100406.75
2022-09-07T10:14:47.384Z,100410.88
2022-09-07T10:17:25.589Z,100406.63
2022-09-07T10:19:54.296Z,100404.41
2022-09-07T10:22:30.110Z,100410.06
2022-09-07T10:24:58.478Z,100421.16
2022-09-07T10:27:34.253Z,100414.00
2022-09-07T10:30:06.866Z,100424.34
2022-09-07T10:32:37.406Z,100421.94
2022-09-07T10:35:07.730Z,100423.53
2022-09-07T10:37:51.472Z,100420.06
2022-09-07T10:40:35.343Z,100423.16
2022-09-07T10:43:21.411Z,100423.00
2022-09-07T10:45:52.265Z,100421.97
2022-09-07T10:48:35.836Z,100419.72
2022-09-07T10:51:14.330Z,100425.03
2022-09-07T10:53:45.158Z,100429.78
2022-09-07T10:56:26.800Z,100421.84
2022-09-07T10:59:03.908Z,100422.84
2022-09-07T11:01:40.837Z,100425.47
2022-09-07T11:04:26.960Z,100428.09
2022-09-07T11:07:23.872Z,100431.72
2022-09-07T11:10:13.068Z,100421.47
2022-09-07T11:12:44.474Z,100422.06
2022-09-07T11:15:23.775Z,100424.84
2022-09-07T11:18:17.981Z,100424.34
2022-09-07T11:20:55.100Z,100430.03
2022-09-07T11:23:33.091Z,100423.72
2022-09-07T11:26:39.628Z,100421.00
2022-09-07T11:29:36.212Z,100422.25
2022-09-07T11:32:07.428Z,100425.59
2022-09-07T11:35:00.142Z,100428.09
2022-09-07T11:37:46.603Z,100427.06
2022-09-07T11:40:21.657Z,100423.31
2022-09-07T11:42:59.764Z,100415.38
2022-09-07T11:45:52.465Z,100420.44
2022-09-07T11:48:31.047Z,100416.47
2022-09-07T11:51:24.712Z,100402.84
2022-09-07T11:54:02.362Z,100420.41
2022-09-07T11:56:36.924Z,100408.22
2022-09-07T11:59:07.038Z,100411.13
2022-09-07T12:01:58.320Z,100403.13
2022-09-07T12:04:44.298Z,100407.03
2022-09-07T12:07:34.737Z,100414.44
2022-09-07T12:10:28.274Z,100412.25
2022-09-07T12:12:56.763Z,100413.47
2022-09-07T12:16:05.772Z,100409.00
2022-09-07T12:19:08.693Z,100415.56
2022-09-07T12:21:42.405Z,100411.66
2022-09-07T12:24:32.402Z,100413.16
2022-09-07T12:27:01.368Z,100423.00
2022-09-07T12:29:30.821Z,100414.25
2022-09-07T12:32:52.610Z,100413.53
2022-09-07T12:34:57.961Z,100412.13
2022-09-07T12:37:40.071Z,100411.06
2022-09-07T12:40:33.311Z,100407.59
2022-09-07T12:43:13.141Z,100399.97
2022-09-07T12:45:40.635Z,100394.91
2022-09-07T12:48:17.132Z,100396.50
2022-09-07T12:51:03.260Z,100406.66
2022-09-07T12:56:26.201Z,100401.19
2022-09-07T12:59:08.097Z,100401.00
2022-09-07T13:01:51.555Z,100400.16
2022-09-07T13:04:53.260Z,100400.56
2022-09-07T13:08:07.207Z,100394.94
2022-09-07T13:10:39.436Z,100399.53
2022-09-07T13:16:29.537Z,100397.19
2022-09-07T13:19:01.995Z,100403.25
2022-09-07T13:21:33.144Z,100402.63
2022-09-07T13:27:11.644Z,100397.44
2022-09-07T13:29:46.668Z,100398.47
2022-09-07T13:33:07.999Z,100397.16
2022-09-07T13:35:25.436Z,100393.84
2022-09-07T13:37:59.584Z,100395.97
2022-09-07T13:40:30.332Z,100397.63
2022-09-07T13:42:59.352Z,100398.06
2022-09-07T13:45:36.675Z,100389.16
2022-09-07T13:48:14.819Z,100393.19
2022-09-07T13:50:52.384Z,100379.59
2022-09-07T13:53:36.378Z,100389.28
2022-09-07T13:56:41.402Z,100394.47
2022-09-07T13:59:23.062Z,100390.00
2022-09-07T14:01:51.555Z,100377.53
2022-09-07T14:04:35.478Z,100390.75
2022-09-07T14:07:02.988Z,100381.72
2022-09-07T14:09:30.808Z,100384.38
2022-09-07T14:11:58.741Z,100380.41
2022-09-07T14:14:31.053Z,100384.56
2022-09-07T14:17:02.044Z,100389.06
2022-09-07T14:19:39.970Z,100387.63
2022-09-07T14:22:22.315Z,100382.63
2022-09-07T14:24:55.148Z,100380.16
2022-09-07T14:27:33.069Z,100382.72
2022-09-07T14:30:20.208Z,100383.34
2022-09-07T14:32:53.166Z,100381.94
2022-09-07T14:35:24.695Z,100382.81
2022-09-07T14:37:53.316Z,100388.25
2022-09-07T14:40:23.996Z,100393.50
2022-09-07T14:42:54.138Z,100400.25
2022-09-07T14:45:26.376Z,100396.31
2022-09-07T14:47:55.635Z,100399.16
2022-09-07T14:50:27.339Z,100391.03
2022-09-07T14:55:46.434Z,100391.50
2022-09-07T14:58:13.926Z,100388.59
2022-09-07T15:00:45.994Z,100379.22
2022-09-07T15:03:35.855Z,100385.69
2022-09-07T15:06:03.801Z,100386.53
2022-09-07T15:08:45.606Z,100383.59
2022-09-07T15:11:39.983Z,100380.63
2022-09-07T15:14:18.041Z,100374.75
2022-09-07T15:19:50.473Z,100379.13
2022-09-07T15:22:19.271Z,100375.38
2022-09-07T15:24:48.132Z,100378.34
2022-09-07T15:27:30.053Z,100379.41
2022-09-07T15:29:57.629Z,100371.91
2022-09-07T15:32:25.217Z,100368.78
2022-09-07T15:34:52.851Z,100370.47
2022-09-07T15:41:10.581Z,100368.16
2022-09-07T15:43:34.144Z,100371.72
2022-09-07T15:46:03.555Z,100372.78
2022-09-07T15:48:31.354Z,100379.84
2022-09-07T15:52:04.681Z,100371.94
2022-09-07T15:57:47.696Z,100381.06
2022-09-07T15:59:31.685Z,100371.41
2022-09-07T16:01:59.793Z,100377.22
2022-09-07T16:04:27.635Z,100374.66
2022-09-07T16:06:55.280Z,100367.94
2022-09-07T16:09:23.320Z,100379.16
2022-09-07T16:11:51.297Z,100376.25
2022-09-07T16:14:19.046Z,100371.41
2022-09-07T16:19:36.060Z,100379.28
2022-09-07T16:22:04.022Z,100377.56
2022-09-07T16:24:31.694Z,100379.63
2022-09-07T16:26:59.228Z,100380.84
2022-09-07T16:29:26.789Z,100377.88
2022-09-07T16:34:41.857Z,100374.31
2022-09-07T16:37:09.363Z,100370.50
2022-09-07T16:39:37.224Z,100379.25
2022-09-07T16:42:05.052Z,100373.09
2022-09-07T16:44:35.061Z,100372.03
2022-09-07T16:47:04.434Z,100377.59
2022-09-07T16:49:32.203Z,100381.50
2022-09-07T16:51:59.849Z,100385.25
2022-09-07T16:54:27.413Z,100380.22
2022-09-07T16:56:54.924Z,100374.81
2022-09-07T16:59:26.806Z,100385.44
2022-09-07T17:01:54.458Z,100386.91
2022-09-07T17:04:22.236Z,100383.59
2022-09-07T17:06:52.049Z,100383.59
2022-09-07T17:09:20.640Z,100380.88
2022-09-07T17:11:48.209Z,100387.75
2022-09-07T17:14:16.008Z,100394.03
2022-09-07T17:16:44.230Z,100402.34
2022-09-07T17:19:30.044Z,100396.09
2022-09-07T17:21:59.812Z,100398.13
2022-09-07T17:24:27.458Z,100398.13
2022-09-07T17:26:55.095Z,100397.91
2022-09-07T17:29:22.692Z,100402.66
2022-09-07T17:34:37.792Z,100400.72
2022-09-07T17:37:05.467Z,100400.72
2022-09-07T17:39:33.043Z,100410.16
2022-09-07T17:42:01.109Z,100406.16
2022-09-07T17:44:33.301Z,100405.25
2022-09-07T17:47:03.645Z,100410.81
2022-09-07T17:49:31.317Z,100415.28
2022-09-07T17:52:01.057Z,100418.75
2022-09-07T17:54:29.043Z,100420.19
2022-09-07T17:56:57.013Z,100420.78
2022-09-07T18:02:13.964Z,100428.16
2022-09-07T18:04:42.725Z,100431.25
2022-09-07T18:07:10.571Z,100430.78
2022-09-07T18:09:38.318Z,100429.94
2022-09-07T18:12:06.447Z,100426.94
2022-09-07T18:14:34.045Z,100417.75
2022-09-07T18:17:01.908Z,100418.13
2022-09-07T18:19:29.481Z,100428.47
2022-09-07T18:21:57.013Z,100422.56
2022-09-07T18:24:24.666Z,100426.53
2022-09-07T18:26:53.930Z,100426.06
2022-09-07T18:29:33.980Z,100425.41
2022-09-07T18:32:07.497Z,100417.28
2022-09-07T18:34:36.488Z,100427.28
2022-09-07T18:37:04.706Z,100426.06
2022-09-07T18:39:33.574Z,100418.13
2022-09-07T18:42:01.501Z,100424.75
2022-09-07T18:47:23.287Z,100430.81
2022-09-07T18:49:55.543Z,100428.00
2022-09-07T18:55:10.969Z,100435.19
2022-09-07T18:57:38.634Z,100433.69
2022-09-07T19:00:07.960Z,100436.78
2022-09-07T19:02:35.877Z,100438.00
2022-09-07T19:07:51.899Z,100445.16
2022-09-07T19:10:19.504Z,100449.09
2022-09-07T19:12:47.246Z,100437.81
2022-09-07T19:15:15.026Z,100440.00
2022-09-07T19:17:42.887Z,100442.06
2022-09-07T19:20:10.724Z,100437.50
2022-09-07T19:22:39.047Z,100442.25
2022-09-07T19:25:06.770Z,100446.34
2022-09-07T19:27:34.395Z,100448.56
2022-09-07T19:30:01.992Z,100442.50
2022-09-07T19:32:29.857Z,100443.50
2022-09-07T19:34:57.418Z,100439.31
2022-09-07T19:37:25.767Z,100441.38
2022-09-07T19:39:56.959Z,100441.75
2022-09-07T19:42:25.601Z,100435.50
2022-09-07T19:44:54.212Z,100431.31
2022-09-07T19:47:23.330Z,100448.69
2022-09-07T19:49:52.314Z,100441.63
2022-09-07T19:52:19.866Z,100441.78
2022-09-07T19:54:47.423Z,100440.28
2022-09-07T19:57:14.926Z,100440.03
2022-09-07T19:59:42.489Z,100436.84
2022-09-07T20:02:10.491Z,100437.69
2022-09-07T20:04:38.161Z,100432.28
2022-09-07T20:07:06.668Z,100439.34
2022-09-07T20:09:34.196Z,100445.59
2022-09-07T20:12:03.833Z,100446.41
2022-09-07T20:14:31.361Z,100443.91
2022-09-07T20:16:58.951Z,100445.94
2022-09-07T20:19:26.587Z,100448.63
2022-09-07T20:21:57.275Z,100452.56
2022-09-07T20:24:25.273Z,100447.53
2022-09-07T20:26:52.793Z,100440.78
2022-09-07T20:29:28.921Z,100439.31
2022-09-07T20:32:01.230Z,100440.69
2022-09-07T20:34:29.239Z,100443.94
2022-09-07T20:36:57.102Z,100447.00
2022-09-07T20:39:24.827Z,100453.78
2022-09-07T20:41:52.548Z,100453.28
2022-09-07T20:44:20.234Z,100456.16
2022-09-07T20:46:47.837Z,100460.50
2022-09-07T20:49:15.461Z,100463.41
2022-09-07T20:51:43.012Z,100470.81
2022-09-07T20:54:10.801Z,100466.66
2022-09-07T20:56:38.280Z,100476.22
2022-09-07T20:59:06.892Z,100469.84
2022-09-07T21:01:35.250Z,100477.56
2022-09-07T21:04:04.095Z,100472.16
2022-09-07T21:06:32.084Z,100480.25
2022-09-07T21:09:00.092Z,100477.72
2022-09-07T21:11:33.193Z,100474.88
2022-09-07T21:14:00.750Z,100479.41
2022-09-07T21:16:29.000Z,100477.38
2022-09-07T21:18:58.330Z,100476.91
2022-09-07T21:21:27.424Z,100481.81
2022-09-07T21:23:56.936Z,100475.25
2022-09-07T21:26:25.509Z,100485.41
2022-09-07T21:28:58.604Z,100478.31
2022-09-07T21:31:27.691Z,100482.72
2022-09-07T21:33:57.199Z,100488.09
2022-09-07T21:36:25.604Z,100480.84
2022-09-07T21:38:54.348Z,100488.09
2022-09-07T21:41:23.986Z,100487.22
2022-09-07T21:43:59.142Z,100491.44
2022-09-07T21:46:29.371Z,100486.72
2022-09-07T21:48:58.360Z,100486.72
2022-09-07T21:51:27.411Z,100486.03
2022-09-07T21:53:56.751Z,100487.22
2022-09-07T21:56:24.587Z,100480.38
2022-09-07T21:58:56.615Z,100488.63
2022-09-07T22:01:26.159Z,100473.47
2022-09-07T22:03:59.691Z,100472.78
2022-09-07T22:06:28.251Z,100466.91
2022-09-07T22:08:56.086Z,100467.28
2022-09-07T22:11:25.080Z,100475.91
2022-09-07T22:13:57.623Z,100465.47
2022-09-07T22:16:25.831Z,100468.16
2022-09-07T22:18:53.747Z,100476.25
2022-09-07T22:21:28.631Z,100466.47
2022-09-07T22:24:01.848Z,100478.94
2022-09-07T22:26:32.785Z,100470.84
2022-09-07T22:29:00.453Z,100473.56
2022-09-07T22:31:30.626Z,100480.63
2022-09-07T22:34:00.091Z,100477.25
2022-09-07T22:36:32.903Z,100474.75
2022-09-07T22:39:03.923Z,100466.16
2022-09-07T22:41:34.075Z,100465.31
2022-09-07T22:44:01.830Z,100468.16
2022-09-07T22:46:31.227Z,100466.16
2022-09-07T22:48:59.321Z,100469.53
2022-09-07T22:51:27.513Z,100468.69
2022-09-07T22:53:56.050Z,100469.53
2022-09-07T22:56:27.174Z,100464.47
2022-09-07T22:58:57.607Z,100472.72
2022-09-07T23:01:26.430Z,100463.59
2022-09-07T23:03:54.552Z,100462.59
2022-09-07T23:06:29.004Z,100465.97
2022-09-07T23:08:58.749Z,100467.00
2022-09-07T23:11:27.104Z,100453.53
2022-09-07T23:13:57.083Z,100452.69
2022-09-07T23:16:26.422Z,100456.22
2022-09-07T23:18:55.524Z,100461.78
2022-09-07T23:21:23.059Z,100468.50
2022-09-07T23:23:52.644Z,100460.41
2022-09-07T23:26:21.551Z,100463.78
2022-09-07T23:28:53.362Z,100461.94
2022-09-07T23:31:22.264Z,100465.66
2022-09-07T23:33:50.214Z,100458.94
2022-09-07T23:36:18.950Z,100455.56
2022-09-07T23:38:46.834Z,100458.44
2022-09-07T23:41:14.690Z,100464.16
2022-09-07T23:43:42.697Z,100460.00
2022-09-07T23:46:11.578Z,100452.41
2022-09-07T23:48:39.529Z,100460.50
2022-09-07T23:51:07.057Z,100464.03
2022-09-07T23:53:35.072Z,100468.59
2022-09-07T23:56:05.826Z,100459.50
2022-09-07T23:58:33.559Z,100457.44
